This is the latest recevied weather packets stored in our database for station/object KD7AWQ. If no packets are shown the sender has not sent any weather packets the latest 10 day(s).
| Time | Temp. | Humidity | Pressure | Rain* | Wind** | Luminosity | Snow |
|---|---|---|---|---|---|---|---|
| 1778127076 | 19.44° C | 16% | 1185.5 hPa | 0 mm | - | 0 W/m² | - |
| 1778126773 | 19.44° C | 16% | 1185.5 hPa | 0 mm | - | 0 W/m² | - |
| 1778125861 | 18.89° C | 17% | 1185.2 hPa | 0 mm | - | 0 W/m² | - |
| 1778125256 | 18.33° C | 17% | 1185 hPa | 0 mm | - | 0 W/m² | - |
| 1778105549 | 23.33° C | 19% | 1183.7 hPa | 0 mm | - | 811 W/m² | - |
| 1778101907 | 22.78° C | 20% | 1184 hPa | 0 mm | - | 976 W/m² | - |
| 1778101604 | 22.78° C | 21% | 1183.7 hPa | 0 mm | - | 984 W/m² | - |
| 1778100998 | 22.78° C | 23% | 1184.5 hPa | 0 mm | - | 1007 W/m² | - |
| 1778099482 | 21.67° C | 22% | 1184.4 hPa | 0 mm | - | 1050 W/m² | - |
| 1778099180 | 21.11° C | 24% | 1184.3 hPa | 0 mm | - | 1055 W/m² | - |
| 1778098876 | 20.56° C | 23% | 1184.5 hPa | 0 mm | - | 1059 W/m² | - |
| 1778096147 | 20° C | 27% | 1184.7 hPa | 0 mm | - | 1094 W/m² | - |
| 1778095844 | 20.56° C | 26% | 1184.9 hPa | 0 mm | - | 1096 W/m² | - |
| 1778095543 | 20.56° C | 26% | 1184.6 hPa | 0 mm | - | 1096 W/m² | - |
| 1778094630 | 21.11° C | 27% | 1184.9 hPa | 0 mm | - | 1094 W/m² | - |
| 1778090994 | 18.33° C | 32% | 1186 hPa | 0 mm | - | 1041 W/m² | - |
| 1778090089 | 17.22° C | 33% | 1186 hPa | 0 mm | - | 1016 W/m² | - |
| 1778089175 | 17.78° C | 32% | 1185.8 hPa | 0 mm | - | 984 W/m² | - |
| 1778088872 | 18.33° C | 32% | 1186.1 hPa | 0 mm | - | 974 W/m² | - |
| 1778087963 | 16.67° C | 34% | 1186.1 hPa | 0 mm | - | 937 W/m² | - |
| 1778087358 | 17.22° C | 33% | 1186.3 hPa | 0 mm | - | 913 W/m² | - |
| 1778085536 | 17.22° C | 33% | 1186 hPa | 0 mm | - | 823 W/m² | - |
| 1778085230 | 17.78° C | 33% | 1186 hPa | 0 mm | - | 806 W/m² | - |
| 1778084925 | 16.11° C | 34% | 1185.7 hPa | 0 mm | - | 791 W/m² | - |
| 1778084321 | 16.11° C | 36% | 1185.8 hPa | 0 mm | - | 753 W/m² | - |
* Rain latest hour (hover to see other rain measurements)
** Current wind speed in m/s (hover to see current wind gust speed)